createdAt,value
2018-06-17T00:00:33.478Z,98103.37
2018-06-17T00:03:01.950Z,98073.95
2018-06-17T00:05:30.438Z,98097.28
2018-06-17T00:07:58.938Z,98101.34
2018-06-17T00:10:27.529Z,98103.37
2018-06-17T00:12:56.039Z,98100.33
2018-06-17T00:15:24.563Z,98091.19
2018-06-17T00:17:53.045Z,98105.40
2018-06-17T00:20:21.633Z,98093.22
2018-06-17T00:22:50.240Z,98076.98
2018-06-17T00:25:19.424Z,98061.77
2018-06-17T00:27:48.062Z,98088.15
2018-06-17T00:30:16.525Z,98100.33
2018-06-17T00:32:45.017Z,98134.83
2018-06-17T00:35:13.538Z,98127.73
2018-06-17T00:37:42.123Z,98118.59
2018-06-17T00:40:10.680Z,98083.08
2018-06-17T00:42:39.142Z,98095.25
2018-06-17T00:45:07.646Z,98152.08
2018-06-17T00:47:37.850Z,98068.88
2018-06-17T00:50:06.833Z,98067.86
2018-06-17T00:52:35.530Z,98094.23
2018-06-17T00:55:04.061Z,98082.06
2018-06-17T00:57:46.449Z,98082.06
2018-06-17T01:00:14.933Z,98043.50
2018-06-17T01:02:43.739Z,98013.06
2018-06-17T01:05:12.253Z,98083.08
2018-06-17T01:07:40.925Z,98064.81
2018-06-17T01:10:09.733Z,98049.59
2018-06-17T01:12:38.406Z,98032.34
2018-06-17T01:15:07.121Z,98089.16
2018-06-17T01:17:36.053Z,98073.95
2018-06-17T01:20:04.882Z,98057.70
2018-06-17T01:22:33.357Z,98053.66
2018-06-17T01:25:02.249Z,98051.63
2018-06-17T01:27:30.741Z,98018.13
2018-06-17T01:29:59.349Z,98028.28
2018-06-17T01:32:27.826Z,98030.31
2018-06-17T01:34:56.634Z,98021.17
2018-06-17T01:37:25.105Z,98035.38
2018-06-17T01:39:53.658Z,98050.60
2018-06-17T01:42:22.648Z,98050.60
2018-06-17T01:44:51.126Z,98040.45
2018-06-17T01:47:19.594Z,98003.92
2018-06-17T01:49:48.114Z,98044.52
2018-06-17T01:52:16.725Z,98010.02
2018-06-17T01:54:45.221Z,97974.50
2018-06-17T01:57:13.721Z,98019.15
2018-06-17T01:59:42.270Z,98003.92
2018-06-17T02:02:10.770Z,98032.34
2018-06-17T02:04:44.823Z,98007.98
2018-06-17T02:07:18.594Z,97988.70
2018-06-17T02:09:52.981Z,97993.78
2018-06-17T02:12:21.445Z,98018.13
2018-06-17T02:14:56.702Z,97997.84
2018-06-17T02:17:26.093Z,97999.88
2018-06-17T02:19:55.109Z,97978.56
2018-06-17T02:22:24.088Z,98026.25
2018-06-17T02:24:52.565Z,98005.95
2018-06-17T02:27:21.301Z,98012.05
2018-06-17T02:29:49.837Z,98037.41
2018-06-17T02:32:18.312Z,98062.78
2018-06-17T02:34:46.806Z,98053.66
2018-06-17T02:37:15.878Z,98093.22
2018-06-17T02:39:44.359Z,98082.06
2018-06-17T02:42:13.041Z,98110.48
2018-06-17T02:44:41.511Z,98095.25
2018-06-17T02:47:15.383Z,98124.68
2018-06-17T02:49:47.315Z,98136.86
2018-06-17T02:52:21.088Z,98079.02
2018-06-17T02:54:49.800Z,98128.73
2018-06-17T02:57:19.553Z,98114.53
2018-06-17T02:59:48.619Z,98129.75
2018-06-17T03:02:17.437Z,98118.59
2018-06-17T03:04:45.889Z,98112.50
2018-06-17T03:07:14.397Z,98123.67
2018-06-17T03:09:42.862Z,98079.02
2018-06-17T03:12:11.350Z,98094.23
2018-06-17T03:14:39.859Z,98064.81
2018-06-17T03:17:08.357Z,98074.95
2018-06-17T03:19:38.303Z,98113.52
2018-06-17T03:22:06.886Z,98111.48
2018-06-17T03:24:41.702Z,98085.11
2018-06-17T03:27:15.564Z,98085.11
2018-06-17T03:29:49.497Z,98112.50
2018-06-17T03:32:23.241Z,98082.06
2018-06-17T03:34:57.241Z,98068.88
2018-06-17T03:37:25.737Z,98109.46
2018-06-17T03:39:54.818Z,98099.31
2018-06-17T03:42:24.214Z,98103.37
2018-06-17T03:44:52.729Z,98130.77
2018-06-17T03:47:21.225Z,98147.00
2018-06-17T03:49:49.705Z,98103.37
2018-06-17T03:52:18.202Z,98149.03
2018-06-17T03:54:47.218Z,98163.23
2018-06-17T03:57:16.237Z,98121.63
2018-06-17T03:59:44.708Z,98089.16
2018-06-17T04:02:13.189Z,98076.98
2018-06-17T04:04:47.057Z,98057.70
2018-06-17T04:07:15.982Z,98049.59
2018-06-17T04:09:44.534Z,97940.00
2018-06-17T04:12:12.999Z,97858.83
2018-06-17T04:14:41.957Z,97838.53
2018-06-17T04:17:15.012Z,97909.56
2018-06-17T04:19:45.182Z,97861.88
2018-06-17T04:22:16.600Z,97880.13
2018-06-17T04:24:45.106Z,97943.05
2018-06-17T04:27:13.578Z,97959.28
2018-06-17T04:29:42.154Z,97950.15
2018-06-17T04:32:12.266Z,98030.31
2018-06-17T04:34:40.744Z,97980.59
2018-06-17T04:37:09.202Z,97922.75
2018-06-17T04:39:38.042Z,97948.12
2018-06-17T04:42:06.637Z,97857.81
2018-06-17T04:44:35.556Z,97848.68
2018-06-17T04:47:04.029Z,97859.84
2018-06-17T04:49:32.551Z,97947.11
2018-06-17T04:52:01.191Z,97926.81
2018-06-17T04:54:29.669Z,97960.30
2018-06-17T04:56:58.157Z,97829.41
2018-06-17T04:59:27.251Z,97757.36
2018-06-17T05:01:55.729Z,97732.00
2018-06-17T05:04:24.201Z,97519.95
2018-06-17T05:06:53.338Z,97678.22
2018-06-17T05:09:21.837Z,97692.42
2018-06-17T05:11:50.313Z,97631.55
2018-06-17T05:14:18.881Z,97505.74
2018-06-17T05:16:47.349Z,97458.05
2018-06-17T05:19:16.261Z,97728.95
2018-06-17T05:21:44.733Z,97740.11
2018-06-17T05:24:14.033Z,97672.14
2018-06-17T05:26:42.746Z,97561.55
2018-06-17T05:29:11.251Z,97466.17
2018-06-17T05:31:39.758Z,97404.29
2018-06-17T05:34:08.362Z,97553.42
2018-06-17T05:36:36.904Z,97526.03
2018-06-17T05:39:09.050Z,97621.41
2018-06-17T05:41:37.549Z,97681.27
2018-06-17T05:44:06.670Z,97693.44
2018-06-17T05:46:35.479Z,97601.11
2018-06-17T05:49:03.979Z,97564.59
2018-06-17T05:51:32.686Z,97481.39
2018-06-17T05:54:01.198Z,97307.91
2018-06-17T05:56:29.992Z,97391.09
2018-06-17T05:58:58.493Z,97556.47
2018-06-17T06:01:27.049Z,97533.14
2018-06-17T06:03:56.028Z,97512.84
2018-06-17T06:06:25.269Z,97596.04
2018-06-17T06:08:53.764Z,97630.53
2018-06-17T06:11:22.709Z,97743.16
2018-06-17T06:13:51.200Z,97832.45
2018-06-17T06:16:19.697Z,97779.69
2018-06-17T06:18:48.270Z,97691.41
2018-06-17T06:21:16.753Z,97612.27
2018-06-17T06:23:45.243Z,97616.33
2018-06-17T06:26:13.761Z,97558.50
2018-06-17T06:28:42.262Z,97652.86
2018-06-17T06:31:10.756Z,97526.03
2018-06-17T06:33:39.253Z,97535.16
2018-06-17T06:36:07.701Z,97606.19
2018-06-17T06:38:36.233Z,97565.60
2018-06-17T06:41:04.774Z,97527.05
2018-06-17T06:43:33.427Z,97598.06
2018-06-17T06:46:02.155Z,97599.08
2018-06-17T06:48:30.654Z,97533.14
2018-06-17T06:50:59.229Z,97517.92
2018-06-17T06:53:27.968Z,97275.44
2018-06-17T06:55:56.450Z,97381.97
2018-06-17T06:58:24.925Z,97153.70
2018-06-17T07:00:53.466Z,97286.60
2018-06-17T07:03:33.277Z,97483.42
2018-06-17T07:06:13.046Z,97318.05
2018-06-17T07:08:52.841Z,97561.55
2018-06-17T07:11:21.350Z,97465.16
2018-06-17T07:13:49.855Z,97406.31
2018-06-17T07:16:29.727Z,97237.91
2018-06-17T07:18:58.264Z,97212.55
2018-06-17T07:21:26.729Z,97284.58
2018-06-17T07:23:55.293Z,97374.86
2018-06-17T07:26:39.342Z,97437.77
2018-06-17T07:29:19.574Z,97246.02
2018-06-17T07:31:48.136Z,97281.53
2018-06-17T07:34:17.053Z,97368.78
2018-06-17T07:36:45.578Z,97373.85
2018-06-17T07:39:27.941Z,97288.63
2018-06-17T07:41:56.407Z,97375.88
2018-06-17T07:44:24.877Z,97303.84
2018-06-17T07:46:53.858Z,97155.73
2018-06-17T07:49:51.197Z,97461.10
2018-06-17T07:52:32.250Z,97403.27
2018-06-17T07:55:00.721Z,97406.31
2018-06-17T07:57:31.422Z,97386.02
2018-06-17T07:59:59.935Z,97358.63
2018-06-17T08:02:28.543Z,97391.09
2018-06-17T08:04:57.041Z,97356.61
2018-06-17T08:07:25.505Z,97120.23
2018-06-17T08:09:54.220Z,97324.14
2018-06-17T08:12:22.802Z,97220.66
2018-06-17T08:14:51.337Z,97334.28
2018-06-17T08:17:19.846Z,97363.70
2018-06-17T08:19:48.450Z,97288.63
2018-06-17T08:22:16.973Z,97392.11
2018-06-17T08:24:45.529Z,97373.85
2018-06-17T08:27:14.029Z,97237.91
2018-06-17T08:29:42.656Z,97395.16
2018-06-17T08:32:11.121Z,97141.53
2018-06-17T08:34:39.673Z,97279.50
2018-06-17T08:37:08.196Z,97247.03
2018-06-17T08:39:36.677Z,97278.48
2018-06-17T08:42:05.258Z,97195.30
2018-06-17T08:44:33.875Z,97177.04
2018-06-17T08:47:02.365Z,97240.95
2018-06-17T08:49:30.848Z,97225.73
2018-06-17T08:51:59.354Z,97246.02
2018-06-17T08:54:27.914Z,97153.70
2018-06-17T08:56:56.401Z,97229.80
2018-06-17T08:59:25.005Z,97137.48
2018-06-17T09:01:53.707Z,97063.42
2018-06-17T09:04:22.193Z,97211.53
2018-06-17T09:06:50.761Z,97111.10
2018-06-17T09:09:19.468Z,97135.45
2018-06-17T09:11:48.021Z,97098.92
2018-06-17T09:14:16.564Z,97003.57
2018-06-17T09:16:45.933Z,96974.16
2018-06-17T09:19:14.832Z,97134.43
2018-06-17T09:21:43.297Z,97041.11
2018-06-17T09:24:11.866Z,97181.09
2018-06-17T09:26:40.394Z,97302.84
2018-06-17T09:29:08.926Z,97099.94
2018-06-17T09:31:37.473Z,97258.20
2018-06-17T09:34:06.313Z,97019.80
2018-06-17T09:36:34.857Z,97186.17
2018-06-17T09:39:04.326Z,97160.81
2018-06-17T09:41:32.834Z,97170.95
2018-06-17T09:44:01.401Z,97443.85
2018-06-17T09:46:29.922Z,97416.46
2018-06-17T09:48:58.419Z,97358.63
2018-06-17T09:51:26.952Z,97392.11
2018-06-17T09:53:55.459Z,97399.22
2018-06-17T09:56:24.037Z,97427.63
2018-06-17T09:58:53.040Z,97386.02
2018-06-17T10:01:21.598Z,97368.78
2018-06-17T10:03:50.109Z,97148.63
2018-06-17T10:06:18.632Z,97294.72
2018-06-17T10:08:47.277Z,97294.72
2018-06-17T10:11:15.825Z,97225.73
2018-06-17T10:13:45.157Z,97295.73
2018-06-17T10:16:14.494Z,97111.10
2018-06-17T10:18:43.158Z,97235.88
2018-06-17T10:21:11.679Z,97064.44
2018-06-17T10:23:40.410Z,96996.47
2018-06-17T10:26:08.913Z,97163.85
2018-06-17T10:28:37.573Z,97149.66
2018-06-17T10:31:07.213Z,97160.81
2018-06-17T10:33:36.686Z,97163.85
2018-06-17T10:36:05.387Z,97231.82
2018-06-17T10:38:33.905Z,97155.73
2018-06-17T10:41:02.422Z,97190.23
2018-06-17T10:43:32.064Z,97194.28
2018-06-17T10:46:00.582Z,97107.04
2018-06-17T10:48:29.115Z,97021.83
2018-06-17T10:50:58.046Z,96980.23
2018-06-17T10:53:26.554Z,97031.97
2018-06-17T10:55:55.849Z,96875.75
2018-06-17T10:58:24.158Z,96987.34
2018-06-17T11:00:52.665Z,96781.42
2018-06-17T11:03:21.154Z,96969.08
2018-06-17T11:05:49.660Z,97122.27
2018-06-17T11:08:18.278Z,97003.57
2018-06-17T11:10:46.759Z,97120.23
2018-06-17T11:13:15.753Z,97102.98
2018-06-17T11:15:44.815Z,96943.72
2018-06-17T11:18:13.289Z,97014.73
2018-06-17T11:20:41.765Z,97144.58
2018-06-17T11:23:10.298Z,97078.64
2018-06-17T11:25:38.780Z,97084.72
2018-06-17T11:28:07.414Z,96977.20
2018-06-17T11:30:35.892Z,97144.58
2018-06-17T11:33:04.511Z,96903.14
2018-06-17T11:35:33.077Z,96870.69
2018-06-17T11:38:01.641Z,97031.97
2018-06-17T11:40:30.173Z,97044.15
2018-06-17T11:42:58.650Z,96880.83
2018-06-17T11:45:27.337Z,97020.81
2018-06-17T11:47:55.836Z,97112.11
2018-06-17T11:50:24.335Z,97040.09
2018-06-17T11:52:52.829Z,96879.81
2018-06-17T11:55:21.321Z,96850.39
2018-06-17T11:57:49.838Z,96881.84
2018-06-17T12:00:18.354Z,96819.97
2018-06-17T12:02:46.846Z,97050.23
2018-06-17T12:05:16.407Z,96887.93
2018-06-17T12:07:44.911Z,96952.85
2018-06-17T12:10:13.452Z,96897.06
2018-06-17T12:12:42.288Z,96977.20
2018-06-17T12:15:10.780Z,96982.27
2018-06-17T12:17:39.306Z,97114.14
2018-06-17T12:20:07.900Z,96868.66
2018-06-17T12:22:36.381Z,96911.27
2018-06-17T12:25:04.874Z,96915.31
2018-06-17T12:27:33.461Z,96897.06
2018-06-17T12:30:01.960Z,97034.00
2018-06-17T12:32:30.466Z,97150.66
2018-06-17T12:34:58.986Z,97005.59
2018-06-17T12:37:27.470Z,96997.48
2018-06-17T12:39:56.039Z,96955.89
2018-06-17T12:42:24.550Z,97203.41
2018-06-17T12:44:53.050Z,97209.50
2018-06-17T12:47:21.785Z,97109.07
2018-06-17T12:49:50.275Z,96935.60
2018-06-17T12:52:18.914Z,96909.23
2018-06-17T12:54:47.549Z,96935.60
2018-06-17T12:57:16.016Z,96937.63
2018-06-17T12:59:44.505Z,96897.06
2018-06-17T13:02:12.982Z,97090.81
2018-06-17T13:04:41.688Z,97158.78
2018-06-17T13:07:10.166Z,97146.61
2018-06-17T13:09:38.658Z,97267.33
2018-06-17T13:12:07.353Z,97155.73
2018-06-17T13:14:35.886Z,97207.48
2018-06-17T13:17:04.691Z,97227.77
2018-06-17T13:19:33.175Z,97215.59
2018-06-17T13:22:02.087Z,97331.23
2018-06-17T13:24:30.542Z,97269.36
2018-06-17T13:26:59.039Z,97328.20
2018-06-17T13:29:27.552Z,97298.78
2018-06-17T13:31:56.046Z,97397.19
2018-06-17T13:34:25.070Z,97287.62
2018-06-17T13:36:53.679Z,97325.16
2018-06-17T13:39:22.151Z,97116.17
2018-06-17T13:41:50.693Z,97124.29
2018-06-17T13:44:19.166Z,96926.48
2018-06-17T13:46:47.680Z,96820.98
2018-06-17T13:49:16.201Z,96867.64
2018-06-17T13:51:44.753Z,96993.42
2018-06-17T13:54:13.277Z,97052.27
2018-06-17T13:56:41.830Z,97053.28
2018-06-17T13:59:10.308Z,97137.48
2018-06-17T14:01:38.973Z,96943.72
2018-06-17T14:04:07.482Z,96812.87
2018-06-17T14:06:36.006Z,97154.72
2018-06-17T14:09:06.497Z,96894.02
2018-06-17T14:11:34.985Z,96958.94
2018-06-17T14:14:04.369Z,97026.91
2018-06-17T14:16:32.842Z,97055.30
2018-06-17T14:19:01.338Z,97066.47
2018-06-17T14:21:29.933Z,97013.72
2018-06-17T14:23:58.404Z,96866.63
2018-06-17T14:26:27.205Z,97059.36
2018-06-17T14:28:55.681Z,96957.92
2018-06-17T14:31:24.271Z,97008.64
2018-06-17T14:33:52.685Z,97032.98
2018-06-17T14:36:21.396Z,97090.81
2018-06-17T14:38:49.984Z,97003.57
2018-06-17T14:41:19.826Z,96975.16
2018-06-17T14:43:53.454Z,97146.61
2018-06-17T14:46:27.522Z,97183.13
2018-06-17T14:50:00.920Z,97139.50
2018-06-17T14:52:36.871Z,96984.30
2018-06-17T14:55:05.389Z,97009.66
2018-06-17T14:57:33.932Z,96909.23
2018-06-17T15:00:02.583Z,96955.89
2018-06-17T15:02:31.284Z,97068.49
2018-06-17T15:04:59.822Z,96854.45
2018-06-17T15:07:28.302Z,96853.44
2018-06-17T15:09:56.786Z,96866.63
2018-06-17T15:12:25.312Z,96949.80
2018-06-17T15:14:53.822Z,96886.91
2018-06-17T15:17:22.344Z,96897.06
2018-06-17T15:19:50.840Z,96876.77
2018-06-17T15:22:19.365Z,96965.02
2018-06-17T15:24:48.046Z,96880.83
2018-06-17T15:27:16.671Z,96868.66
2018-06-17T15:29:45.201Z,96859.53
2018-06-17T15:32:19.045Z,96898.08
2018-06-17T15:34:52.774Z,96849.38
2018-06-17T15:37:26.909Z,96867.64
2018-06-17T15:39:56.683Z,96858.52
2018-06-17T15:42:25.289Z,96718.53
2018-06-17T15:44:53.769Z,96659.70
2018-06-17T15:47:29.003Z,96780.41
2018-06-17T15:49:57.678Z,96928.50
2018-06-17T15:52:26.145Z,96909.23
2018-06-17T15:54:54.734Z,96975.16
2018-06-17T15:57:23.305Z,97055.30
2018-06-17T15:59:51.793Z,97162.84
2018-06-17T16:02:20.375Z,97150.66
2018-06-17T16:04:48.881Z,97159.80
2018-06-17T16:07:17.366Z,97224.72
2018-06-17T16:09:46.066Z,97212.55
2018-06-17T16:12:19.868Z,97231.82
2018-06-17T16:14:53.609Z,97278.48
2018-06-17T16:17:27.310Z,97225.73
2018-06-17T16:20:01.541Z,97216.60
2018-06-17T16:22:30.015Z,97264.28
2018-06-17T16:24:58.511Z,97166.89
2018-06-17T16:27:27.219Z,97151.68
2018-06-17T16:29:57.671Z,97180.08
2018-06-17T16:32:26.212Z,97161.82
2018-06-17T16:34:54.815Z,97207.48
2018-06-17T16:37:23.329Z,97257.19
2018-06-17T16:39:51.895Z,97260.23
2018-06-17T16:42:20.410Z,97242.98
2018-06-17T16:44:49.358Z,97373.85
2018-06-17T16:47:18.078Z,97328.20
2018-06-17T16:49:46.577Z,97359.65
2018-06-17T16:52:20.372Z,97462.12
2018-06-17T16:54:54.287Z,97418.49
2018-06-17T16:57:28.121Z,97394.14
2018-06-17T17:00:14.042Z,97509.80
2018-06-17T17:02:43.677Z,97553.42
2018-06-17T17:05:12.357Z,97506.76
2018-06-17T17:07:41.455Z,97620.39
2018-06-17T17:10:09.962Z,97616.33
2018-06-17T17:12:39.408Z,97671.13
2018-06-17T17:15:08.561Z,97676.19
2018-06-17T17:17:37.045Z,97712.72
2018-06-17T17:20:05.815Z,97776.64
2018-06-17T17:22:34.326Z,97841.58
2018-06-17T17:25:03.073Z,97868.98
2018-06-17T17:27:31.556Z,97871.00
2018-06-17T17:30:00.018Z,97924.78
2018-06-17T17:32:33.863Z,97997.84
2018-06-17T17:35:07.576Z,98068.88
2018-06-17T17:37:41.424Z,98095.25
2018-06-17T17:40:15.044Z,98123.67
2018-06-17T17:42:43.835Z,98122.66
2018-06-17T17:45:17.984Z,98126.71
2018-06-17T17:47:46.600Z,98111.48
2018-06-17T17:50:15.095Z,98130.77
2018-06-17T17:52:43.701Z,98108.45
2018-06-17T17:55:12.322Z,98135.84
2018-06-17T17:57:40.841Z,98102.36
2018-06-17T18:00:09.846Z,98139.91
2018-06-17T18:02:38.407Z,98063.80
2018-06-17T18:05:07.041Z,98046.55
2018-06-17T18:07:35.516Z,98051.63
2018-06-17T18:10:04.218Z,98011.03
2018-06-17T18:12:32.704Z,98048.58
2018-06-17T18:15:01.182Z,98072.93
2018-06-17T18:17:29.715Z,98089.16
2018-06-17T18:19:58.357Z,98021.17
2018-06-17T18:22:27.137Z,98064.81
2018-06-17T18:25:00.929Z,98067.86
2018-06-17T18:27:34.586Z,98126.71
2018-06-17T18:30:08.444Z,98065.83
2018-06-17T18:32:42.346Z,98121.63
2018-06-17T18:35:16.002Z,98094.23
2018-06-17T18:37:44.625Z,98057.70
2018-06-17T18:40:13.073Z,98056.70
2018-06-17T18:42:41.633Z,98082.06
2018-06-17T18:45:10.181Z,98075.97
2018-06-17T18:47:38.686Z,98128.73
2018-06-17T18:50:07.198Z,98094.23
2018-06-17T18:52:35.706Z,98106.41
2018-06-17T18:55:04.484Z,98084.09
2018-06-17T18:57:32.946Z,98069.89
2018-06-17T19:00:01.429Z,98090.18
2018-06-17T19:02:29.941Z,98102.36
2018-06-17T19:04:58.538Z,98148.02
2018-06-17T19:07:27.410Z,98143.96
2018-06-17T19:10:01.361Z,98159.18
2018-06-17T19:12:35.125Z,98122.66
2018-06-17T19:15:08.939Z,98112.50
2018-06-17T19:17:43.285Z,98114.53
2018-06-17T19:20:12.033Z,98111.48
2018-06-17T19:22:40.585Z,98115.55
2018-06-17T19:25:09.710Z,98116.56
2018-06-17T19:27:38.206Z,98113.52
2018-06-17T19:30:06.789Z,98124.68
2018-06-17T19:32:35.277Z,98139.91
2018-06-17T19:35:03.806Z,98084.09
2018-06-17T19:37:32.262Z,98098.30
2018-06-17T19:40:00.904Z,98082.06
2018-06-17T19:42:29.364Z,98097.28
2018-06-17T19:44:57.813Z,98104.39
2018-06-17T19:47:26.329Z,98117.58
2018-06-17T19:49:59.963Z,98107.43
2018-06-17T19:52:33.761Z,98117.58
2018-06-17T19:55:07.589Z,98109.46
2018-06-17T19:57:41.309Z,98095.25
2018-06-17T20:00:15.076Z,98094.23
2018-06-17T20:02:43.539Z,98092.20
2018-06-17T20:05:12.061Z,98105.40
2018-06-17T20:07:40.526Z,98103.37
2018-06-17T20:10:09.513Z,98091.19
2018-06-17T20:12:37.989Z,98109.46
2018-06-17T20:15:06.778Z,98100.33
2018-06-17T20:17:35.287Z,98113.52
2018-06-17T20:20:04.111Z,98135.84
2018-06-17T20:22:32.605Z,98100.33
2018-06-17T20:25:01.065Z,98098.30
2018-06-17T20:27:29.614Z,98123.67
2018-06-17T20:29:58.094Z,98089.16
2018-06-17T20:32:32.122Z,98151.06
2018-06-17T20:35:05.861Z,98132.80
2018-06-17T20:37:39.569Z,98161.21
2018-06-17T20:40:13.406Z,98169.33
2018-06-17T20:42:48.176Z,98142.95
2018-06-17T20:45:16.890Z,98148.02
2018-06-17T20:47:45.446Z,98152.08
2018-06-17T20:50:14.041Z,98143.96
2018-06-17T20:52:42.500Z,98135.84
2018-06-17T20:55:11.124Z,98101.34
2018-06-17T20:57:39.640Z,98101.34
2018-06-17T21:00:08.818Z,98110.48
2018-06-17T21:02:37.424Z,98150.05
2018-06-17T21:05:06.115Z,98145.98
2018-06-17T21:07:34.571Z,98165.27
2018-06-17T21:10:03.061Z,98121.63
2018-06-17T21:12:31.900Z,98105.40
2018-06-17T21:15:04.765Z,98102.36
2018-06-17T21:17:33.434Z,98140.92
2018-06-17T21:21:05.717Z,98142.95
2018-06-17T21:23:39.365Z,98140.92
2018-06-17T21:26:13.118Z,98147.00
2018-06-17T21:28:41.618Z,98151.06
2018-06-17T21:31:10.325Z,98133.81
2018-06-17T21:33:39.003Z,98140.92
2018-06-17T21:36:07.565Z,98139.91
2018-06-17T21:38:36.076Z,98138.89
2018-06-17T21:41:04.686Z,98166.28
2018-06-17T21:43:33.185Z,98155.13
2018-06-17T21:46:01.654Z,98145.98
2018-06-17T21:48:30.158Z,98142.95
2018-06-17T21:50:58.737Z,98131.78
2018-06-17T21:53:27.217Z,98147.00
2018-06-17T21:55:55.682Z,98168.31
2018-06-17T21:58:29.909Z,98156.14
2018-06-17T22:00:58.442Z,98135.84
2018-06-17T22:03:26.933Z,98132.80
2018-06-17T22:05:55.806Z,98123.67
2018-06-17T22:08:29.369Z,98122.66
2018-06-17T22:11:03.184Z,98123.67
2018-06-17T22:13:36.857Z,98111.48
2018-06-17T22:16:10.607Z,98116.56
2018-06-17T22:18:39.065Z,98099.31
2018-06-17T22:21:07.606Z,98143.96
2018-06-17T22:23:36.096Z,98155.13
2018-06-17T22:26:04.665Z,98140.92
2018-06-17T22:28:33.182Z,98121.63
2018-06-17T22:31:01.654Z,98133.81
2018-06-17T22:33:30.198Z,98135.84
2018-06-17T22:35:58.687Z,98127.73
2018-06-17T22:38:27.170Z,98124.68
2018-06-17T22:40:55.945Z,98152.08
2018-06-17T22:43:24.414Z,98131.78
2018-06-17T22:45:52.897Z,98127.73
2018-06-17T22:48:21.381Z,98139.91
2018-06-17T22:50:49.837Z,98147.00
2018-06-17T22:53:29.709Z,98162.23
2018-06-17T22:55:58.157Z,98093.22
2018-06-17T22:58:31.973Z,98145.98
2018-06-17T23:01:05.826Z,98144.98
2018-06-17T23:03:39.778Z,98174.41
2018-06-17T23:06:13.529Z,98137.88
2018-06-17T23:08:47.330Z,98166.28
2018-06-17T23:11:15.843Z,98132.80
2018-06-17T23:13:44.321Z,98148.02
2018-06-17T23:16:12.777Z,98144.98
2018-06-17T23:18:41.311Z,98192.67
2018-06-17T23:21:09.792Z,98243.41
2018-06-17T23:23:38.258Z,98243.41
2018-06-17T23:26:06.744Z,98249.50
2018-06-17T23:28:35.224Z,98277.91
2018-06-17T23:31:03.753Z,98299.22
2018-06-17T23:33:32.225Z,98302.27
2018-06-17T23:36:00.696Z,98299.22
2018-06-17T23:38:29.202Z,98301.25
2018-06-17T23:40:57.664Z,98296.17
2018-06-17T23:43:26.158Z,98336.77
2018-06-17T23:45:59.768Z,98359.09
2018-06-17T23:48:33.581Z,98325.61
2018-06-17T23:51:07.489Z,98321.55
2018-06-17T23:53:41.157Z,98359.09
2018-06-17T23:56:10.311Z,98359.09
2018-06-17T23:58:39.583Z,98357.06
